»·PEaware :: UAL280 KPSP-KSBA

UAL280 :: KPSP-KSBA

FLIGHT INFORMATION

Flight Status: Arrived
Operator:
United Airlines
More flights by this operator :: More flights under this callsign
Pilot: Ion I. (24133)
Aircraft: BOEING 737-800
(B738)
More flights by this aircraft type
Origin: KPSP Palm Springs Intl
United States
Destination: KSBA Santa Barbara Mun
United States
More flights between these airports :: More routes between these airports
Route: PSP V388 DEWAY POM VNY V186 DEANO V27 KWANG
File this flight plan on PilotEdge
Remarks:
Altitude:
(Current/Filed)
26,000ft
Speed:
(Current/Filed)
460kts
Departed: 19-Nov-20 08:53 AM
Arrived: 19-Nov-20 09:45 AM
Distance/Time
Traveled:
169nm/0:52
Distance/Time
To Go:
Arrived

Flight Plot

Page will automatically refresh every two minutes.

Flight plan parsing failed; only flown route is shown


Map Options




Map Legend


Flown Route
Filed Route
Departure Airport
Arrival Airport
Navaid (VOR, NDB)
Fix

Horizontal Profiles

Position Reports

Time Latitude Longitude Heading Altitude Ground
Speed
19-Nov-20 08:25 33.823418 -116.505900 245 485ft 0kts
19-Nov-20 08:26 33.823418 -116.505900 245 485ft 0kts
19-Nov-20 08:27 33.823418 -116.505900 245 485ft 0kts
19-Nov-20 08:28 33.823418 -116.505900 245 485ft 0kts
19-Nov-20 08:29 33.823418 -116.505900 245 485ft 0kts
19-Nov-20 08:30 33.823418 -116.505900 245 485ft 0kts
19-Nov-20 08:31 33.823418 -116.505900 245 485ft 0kts
19-Nov-20 08:32 33.823418 -116.505900 245 485ft 0kts
19-Nov-20 08:33 33.823418 -116.505900 245 485ft 0kts
19-Nov-20 08:34 33.823418 -116.505900 245 485ft 0kts
19-Nov-20 08:35 33.823418 -116.505900 245 485ft 0kts
19-Nov-20 08:36 33.823418 -116.505900 245 485ft 0kts
19-Nov-20 08:37 33.823418 -116.505900 245 485ft 0kts
19-Nov-20 08:38 33.823418 -116.505900 245 485ft 0kts
19-Nov-20 08:39 33.823418 -116.505900 245 485ft 0kts
19-Nov-20 08:40 33.823418 -116.505900 245 485ft 0kts
19-Nov-20 08:41 33.823418 -116.505900 245 485ft 0kts
19-Nov-20 08:42 33.823418 -116.505900 245 485ft 0kts
19-Nov-20 08:43 33.823419 -116.505897 245 485ft 0kts
19-Nov-20 08:44 33.823927 -116.505489 144 485ft 2kts
19-Nov-20 08:45 33.823938 -116.505498 143 485ft 0kts
19-Nov-20 08:46 33.823938 -116.505498 143 485ft 0kts
19-Nov-20 08:47 33.823678 -116.505269 143 485ft 6kts
19-Nov-20 08:48 33.823001 -116.504493 92 485ft 0kts
19-Nov-20 08:49 33.821383 -116.502337 143 485ft 14kts
19-Nov-20 08:50 33.818520 -116.499137 89 485ft 0kts
19-Nov-20 08:51 33.818518 -116.498657 90 485ft 10kts
19-Nov-20 08:52 33.827168 -116.505434 323 485ft 123kts
19-Nov-20 08:53 33.863983 -116.538947 322 2213ft 186kts
19-Nov-20 08:54 33.914399 -116.522898 69 4055ft 254kts
19-Nov-20 08:55 33.882988 -116.446628 131 6925ft 273kts
19-Nov-20 08:56 33.841048 -116.362916 118 9422ft 303kts
19-Nov-20 08:57 33.805946 -116.267387 98 11904ft 327kts
19-Nov-20 08:58 33.855349 -116.189347 2 11990ft 296kts
19-Nov-20 08:59 33.901525 -116.237762 281 12072ft 258kts
19-Nov-20 09:00 33.913543 -116.340654 274 12064ft 351kts
19-Nov-20 09:01 33.924458 -116.459620 274 12022ft 358kts
19-Nov-20 09:02 33.934929 -116.580176 273 12026ft 360kts
19-Nov-20 09:03 33.945247 -116.699830 274 12049ft 360kts
19-Nov-20 09:04 33.957865 -116.816419 277 12083ft 360kts
19-Nov-20 09:05 33.973339 -116.935693 276 12098ft 363kts
19-Nov-20 09:06 33.988220 -117.055065 276 12031ft 360kts
19-Nov-20 09:07 34.002964 -117.172030 277 12018ft 355kts
19-Nov-20 09:08 34.016635 -117.279863 276 12007ft 356kts
19-Nov-20 09:09 34.029243 -117.381705 277 12000ft 355kts
19-Nov-20 09:10 34.044018 -117.499614 276 12004ft 354kts
19-Nov-20 09:11 34.058126 -117.616935 276 12000ft 354kts
19-Nov-20 09:12 34.071226 -117.726873 276 12000ft 354kts
19-Nov-20 09:13 34.084188 -117.820654 281 12004ft 355kts
19-Nov-20 09:14 34.109050 -117.936092 282 11999ft 355kts
19-Nov-20 09:16 34.133020 -118.051340 282 12008ft 355kts
19-Nov-20 09:17 34.157388 -118.167227 282 12006ft 355kts
19-Nov-20 09:18 34.179750 -118.275732 282 12002ft 354kts
19-Nov-20 09:19 34.202135 -118.386126 282 12000ft 354kts
19-Nov-20 09:20 34.226674 -118.501513 287 12000ft 355kts
19-Nov-20 09:21 34.264806 -118.611785 290 11997ft 356kts
19-Nov-20 09:22 34.294098 -118.697419 290 12007ft 357kts
19-Nov-20 09:23 34.330758 -118.805035 290 11205ft 328kts
19-Nov-20 09:24 34.354750 -118.906177 269 10193ft 299kts
19-Nov-20 09:25 34.348208 -119.002487 266 9190ft 281kts
19-Nov-20 09:26 34.341044 -119.096262 266 8190ft 278kts
19-Nov-20 09:27 34.334128 -119.187538 266 8014ft 278kts
19-Nov-20 09:28 34.327534 -119.275760 266 8012ft 279kts
19-Nov-20 09:29 34.321063 -119.360004 266 7410ft 275kts
19-Nov-20 09:29 34.315166 -119.436477 267 6357ft 272kts
19-Nov-20 09:31 34.307099 -119.541599 267 6010ft 269kts
19-Nov-20 09:32 34.300137 -119.631549 267 6008ft 263kts
19-Nov-20 09:33 34.293186 -119.718170 267 5589ft 253kts
19-Nov-20 09:34 34.286375 -119.802376 267 5010ft 254kts
19-Nov-20 09:35 34.279796 -119.881016 266 5001ft 252kts
19-Nov-20 09:36 34.274002 -119.955703 267 4233ft 240kts
19-Nov-20 09:36 34.268365 -120.024103 267 4026ft 249kts
19-Nov-20 09:38 34.297739 -120.088513 358 3917ft 222kts
19-Nov-20 09:38 34.343865 -120.087392 359 3654ft 212kts
19-Nov-20 09:40 34.401442 -120.085756 11 3624ft 191kts
19-Nov-20 09:40 34.423828 -120.040575 84 3050ft 217kts
19-Nov-20 09:41 34.425026 -119.971306 84 1890ft 184kts
19-Nov-20 09:42 34.426256 -119.915103 89 994ft 152kts
19-Nov-20 09:43 34.427222 -119.870258 88 264ft 142kts
19-Nov-20 09:44 34.427807 -119.839037 102 18ft 10kts
19-Nov-20 09:45 34.426078 -119.838139 165 18ft 10kts
19-Nov-20 09:46 34.425216 -119.837504 113 18ft 2kts
19-Nov-20 09:47 34.425113 -119.837230 114 18ft 0kts
19-Nov-20 09:48 34.425113 -119.837230 114 18ft 0kts

Navigation Log

Ident Type
Flight plan parsing failed, navigation log unavailable